createdAt,value
2022-12-26T00:00:00.777Z,389.73
2022-12-26T00:00:33.214Z,386.08
2022-12-26T00:01:07.437Z,387.38
2022-12-26T00:01:41.345Z,381.17
2022-12-26T00:02:13.748Z,392.50
2022-12-26T00:02:46.200Z,391.20
2022-12-26T00:03:18.767Z,389.15
2022-12-26T00:03:51.566Z,386.35
2022-12-26T00:04:50.729Z,372.42
2022-12-26T00:05:19.434Z,389.80
2022-12-26T00:05:51.742Z,378.70
2022-12-26T00:06:25.870Z,391.65
2022-12-26T00:06:58.179Z,383.67
2022-12-26T00:07:30.459Z,394.02
2022-12-26T00:08:03.276Z,386.20
2022-12-26T00:08:35.556Z,392.67
2022-12-26T00:09:08.065Z,391.52
2022-12-26T00:09:40.353Z,390.95
2022-12-26T00:10:12.697Z,387.58
2022-12-26T00:10:44.971Z,391.50
2022-12-26T00:11:17.809Z,394.38
2022-12-26T00:11:50.147Z,382.20
2022-12-26T00:12:22.453Z,390.73
2022-12-26T00:12:54.731Z,387.83
2022-12-26T00:13:47.058Z,393.58
2022-12-26T00:14:19.379Z,387.30
2022-12-26T00:14:51.887Z,386.02
2022-12-26T00:15:24.165Z,384.73
2022-12-26T00:15:56.568Z,381.77
2022-12-26T00:16:29.199Z,387.25
2022-12-26T00:17:01.622Z,375.70
2022-12-26T00:17:34.006Z,369.83
2022-12-26T00:18:06.331Z,374.45
2022-12-26T00:18:39.227Z,379.35
2022-12-26T00:19:11.667Z,384.52
2022-12-26T00:19:44.031Z,391.70
2022-12-26T00:20:16.729Z,386.83
2022-12-26T00:20:49.053Z,392.63
2022-12-26T00:21:21.729Z,386.58
2022-12-26T00:21:54.759Z,382.75
2022-12-26T00:22:27.035Z,389.90
2022-12-26T00:23:00.383Z,387.40
2022-12-26T00:23:33.484Z,394.05
2022-12-26T00:24:05.859Z,383.80
2022-12-26T00:24:38.186Z,390.25
2022-12-26T00:25:10.452Z,377.35
2022-12-26T00:25:42.816Z,378.92
2022-12-26T00:26:16.591Z,378.70
2022-12-26T00:26:48.980Z,392.13
2022-12-26T00:27:21.266Z,382.33
2022-12-26T00:27:53.744Z,378.38
2022-12-26T00:28:26.094Z,387.88
2022-12-26T00:28:58.744Z,390.30
2022-12-26T00:29:31.132Z,383.23
2022-12-26T00:30:04.106Z,389.65
2022-12-26T00:30:39.942Z,390.63
2022-12-26T00:31:16.250Z,386.98
2022-12-26T00:31:49.948Z,390.65
2022-12-26T00:32:22.319Z,373.92
2022-12-26T00:32:55.354Z,380.45
2022-12-26T00:33:27.642Z,391.35
2022-12-26T00:34:00.425Z,381.38
2022-12-26T00:34:32.818Z,371.25
2022-12-26T00:35:05.312Z,385.55
2022-12-26T00:35:37.592Z,386.30
2022-12-26T00:36:13.917Z,388.55
2022-12-26T00:36:46.260Z,393.42
2022-12-26T00:37:18.659Z,383.60
2022-12-26T00:37:51.194Z,396.00
2022-12-26T00:38:24.219Z,384.48
2022-12-26T00:38:57.739Z,394.35
2022-12-26T00:39:30.187Z,375.70
2022-12-26T00:40:03.069Z,373.58
2022-12-26T00:40:35.348Z,376.27
2022-12-26T00:41:08.357Z,387.48
2022-12-26T00:41:40.667Z,389.45
2022-12-26T00:42:12.982Z,382.60
2022-12-26T00:42:45.682Z,382.77
2022-12-26T00:43:18.075Z,385.27
2022-12-26T00:43:50.671Z,386.13
2022-12-26T00:44:22.996Z,386.63
2022-12-26T00:44:55.330Z,388.02
2022-12-26T00:45:27.673Z,385.33
2022-12-26T00:46:00.385Z,367.48
2022-12-26T00:46:32.945Z,385.45
2022-12-26T00:47:05.520Z,380.98
2022-12-26T00:47:37.921Z,370.95
2022-12-26T00:48:10.273Z,388.25
2022-12-26T00:48:43.049Z,382.00
2022-12-26T00:49:15.323Z,381.73
2022-12-26T00:50:12.811Z,387.17
2022-12-26T00:50:40.315Z,392.23
2022-12-26T00:51:12.758Z,387.13
2022-12-26T00:51:45.182Z,388.92
2022-12-26T00:52:17.517Z,389.20
2022-12-26T00:52:49.773Z,384.60
2022-12-26T00:53:22.804Z,374.98
2022-12-26T00:53:55.120Z,388.38
2022-12-26T00:54:27.554Z,382.90
2022-12-26T00:54:59.884Z,385.52
2022-12-26T00:55:32.293Z,386.13
2022-12-26T00:56:04.948Z,375.85
2022-12-26T00:56:37.631Z,372.15
2022-12-26T00:57:09.910Z,388.02
2022-12-26T00:57:42.192Z,387.20
2022-12-26T00:58:14.573Z,388.38
2022-12-26T00:58:46.977Z,391.02
2022-12-26T00:59:19.413Z,386.88
2022-12-26T00:59:51.762Z,380.90
2022-12-26T01:00:24.117Z,387.58
2022-12-26T01:00:56.565Z,391.15
2022-12-26T01:01:31.424Z,380.00
2022-12-26T01:02:23.878Z,371.48
2022-12-26T01:02:56.409Z,389.23
2022-12-26T01:03:29.239Z,393.20
2022-12-26T01:04:01.721Z,393.33
2022-12-26T01:04:35.416Z,383.48
2022-12-26T01:05:08.746Z,397.20
2022-12-26T01:05:45.509Z,387.73
2022-12-26T01:06:17.880Z,389.00
2022-12-26T01:06:50.164Z,389.05
2022-12-26T01:07:22.449Z,388.38
2022-12-26T01:08:23.585Z,383.98
2022-12-26T01:08:47.709Z,387.95
2022-12-26T01:09:19.998Z,384.02
2022-12-26T01:09:52.299Z,393.00
2022-12-26T01:10:24.674Z,382.75
2022-12-26T01:10:56.972Z,384.83
2022-12-26T01:11:41.286Z,389.77
2022-12-26T01:12:13.559Z,392.33
2022-12-26T01:12:46.136Z,394.05
2022-12-26T01:13:19.348Z,391.40
2022-12-26T01:13:51.677Z,389.58
2022-12-26T01:14:23.976Z,381.45
2022-12-26T01:14:56.835Z,391.40
2022-12-26T01:15:29.134Z,392.70
2022-12-26T01:16:01.915Z,383.85
2022-12-26T01:16:34.284Z,387.13
2022-12-26T01:17:06.724Z,381.05
2022-12-26T01:17:39.018Z,383.25
2022-12-26T01:18:11.336Z,373.98
2022-12-26T01:18:43.683Z,380.08
2022-12-26T01:19:16.118Z,386.08
2022-12-26T01:19:48.509Z,386.08
2022-12-26T01:20:20.830Z,386.92
2022-12-26T01:20:58.172Z,374.95
2022-12-26T01:21:30.550Z,393.42
2022-12-26T01:22:02.857Z,382.67
2022-12-26T01:22:35.234Z,378.92
2022-12-26T01:23:07.550Z,385.00
2022-12-26T01:23:39.932Z,388.40
2022-12-26T01:24:13.171Z,380.05
2022-12-26T01:24:45.528Z,379.95
2022-12-26T01:25:17.833Z,377.58
2022-12-26T01:26:16.528Z,372.27
2022-12-26T01:26:42.494Z,389.35
2022-12-26T01:27:14.878Z,388.15
2022-12-26T01:27:47.376Z,377.33
2022-12-26T01:28:20.274Z,380.33
2022-12-26T01:28:52.934Z,386.45
2022-12-26T01:29:25.254Z,387.02
2022-12-26T01:29:57.553Z,378.88
2022-12-26T01:30:29.997Z,387.98
2022-12-26T01:31:05.434Z,385.20
2022-12-26T01:31:37.885Z,388.58
2022-12-26T01:32:10.415Z,382.75
2022-12-26T01:32:42.731Z,389.35
2022-12-26T01:33:15.040Z,387.27
2022-12-26T01:33:47.724Z,381.65
2022-12-26T01:34:20.066Z,390.65
2022-12-26T01:34:55.645Z,369.33
2022-12-26T01:35:28.242Z,377.20
2022-12-26T01:36:00.723Z,388.13
2022-12-26T01:36:33.060Z,392.05
2022-12-26T01:37:05.433Z,390.30
2022-12-26T01:37:37.862Z,391.48
2022-12-26T01:38:10.226Z,378.45
2022-12-26T01:38:42.579Z,380.08
2022-12-26T01:39:14.866Z,383.45
2022-12-26T01:39:47.397Z,392.23
2022-12-26T01:40:19.759Z,387.10
2022-12-26T01:41:12.169Z,390.55
2022-12-26T01:41:44.622Z,378.25
2022-12-26T01:42:18.705Z,378.30
2022-12-26T01:42:51.105Z,386.95
2022-12-26T01:43:23.377Z,386.05
2022-12-26T01:43:57.174Z,387.45
2022-12-26T01:44:48.237Z,382.27
2022-12-26T01:45:25.364Z,379.75
2022-12-26T01:45:58.305Z,393.25
2022-12-26T01:46:40.917Z,388.58
2022-12-26T01:47:13.547Z,388.98
2022-12-26T01:47:50.617Z,388.95
2022-12-26T01:48:25.863Z,386.88
2022-12-26T01:49:01.074Z,391.23
2022-12-26T01:49:37.745Z,378.58
2022-12-26T01:50:16.411Z,391.95
2022-12-26T01:50:57.095Z,392.77
2022-12-26T01:51:31.899Z,396.40
2022-12-26T01:52:06.780Z,397.08
2022-12-26T01:52:43.246Z,392.63
2022-12-26T01:53:21.888Z,396.25
2022-12-26T01:54:41.419Z,392.35
2022-12-26T01:54:51.069Z,395.35
2022-12-26T01:55:23.431Z,396.58
2022-12-26T01:56:01.419Z,389.83
2022-12-26T01:56:36.654Z,392.27
2022-12-26T01:57:17.577Z,382.92
2022-12-26T01:57:54.724Z,392.38
2022-12-26T01:58:30.352Z,389.65
2022-12-26T01:59:06.084Z,392.85
2022-12-26T01:59:39.780Z,385.15
2022-12-26T02:00:12.490Z,381.67
2022-12-26T02:00:48.843Z,391.48
2022-12-26T02:01:22.104Z,389.48
2022-12-26T02:01:55.527Z,387.67
2022-12-26T02:02:30.237Z,391.30
2022-12-26T02:03:21.119Z,388.40
2022-12-26T02:04:12.334Z,391.23
2022-12-26T02:05:05.077Z,403.60
2022-12-26T02:05:37.771Z,407.98
2022-12-26T02:06:10.944Z,408.20
2022-12-26T02:06:43.440Z,394.98
2022-12-26T02:07:15.821Z,395.05
2022-12-26T02:07:49.607Z,389.35
2022-12-26T02:08:24.257Z,393.92
2022-12-26T02:08:56.697Z,379.55
2022-12-26T02:09:29.040Z,380.73
2022-12-26T02:10:01.784Z,380.42
2022-12-26T02:10:37.049Z,385.98
2022-12-26T02:11:09.603Z,385.13
2022-12-26T02:11:44.663Z,376.92
2022-12-26T02:12:35.807Z,386.55
2022-12-26T02:13:10.633Z,396.88
2022-12-26T02:13:42.918Z,392.02
2022-12-26T02:14:15.324Z,399.13
2022-12-26T02:14:48.099Z,397.48
2022-12-26T02:15:20.556Z,399.13
2022-12-26T02:15:53.055Z,397.13
2022-12-26T02:16:25.982Z,380.50
2022-12-26T02:16:58.704Z,391.42
2022-12-26T02:17:31.101Z,387.48
2022-12-26T02:18:03.437Z,390.73
2022-12-26T02:18:35.729Z,386.85
2022-12-26T02:19:12.661Z,393.95
2022-12-26T02:19:54.100Z,398.25
2022-12-26T02:20:28.425Z,399.15
2022-12-26T02:21:24.021Z,407.27
2022-12-26T02:21:56.601Z,406.77
2022-12-26T02:22:31.740Z,398.88
2022-12-26T02:23:07.000Z,400.08
2022-12-26T02:23:59.055Z,401.75
2022-12-26T02:24:44.231Z,403.17
2022-12-26T02:25:36.771Z,404.63
2022-12-26T02:26:09.152Z,402.55
2022-12-26T02:26:49.253Z,396.33
2022-12-26T02:27:36.715Z,393.85
2022-12-26T02:28:19.484Z,401.30
2022-12-26T02:28:51.740Z,403.33
2022-12-26T02:29:40.915Z,396.50
2022-12-26T02:30:32.073Z,398.50
2022-12-26T02:31:23.081Z,400.67
2022-12-26T02:32:14.037Z,406.40
2022-12-26T02:32:46.344Z,404.20
2022-12-26T02:33:33.889Z,403.73
2022-12-26T02:34:12.658Z,395.23
2022-12-26T02:35:00.571Z,404.13
2022-12-26T02:35:35.487Z,400.58
2022-12-26T02:36:10.482Z,402.65
2022-12-26T02:36:51.799Z,398.35
2022-12-26T02:37:44.371Z,402.45
2022-12-26T02:38:31.205Z,402.52
2022-12-26T02:39:03.515Z,402.67
2022-12-26T02:40:25.443Z,403.77
2022-12-26T02:41:16.498Z,402.58
2022-12-26T02:41:57.399Z,404.30
2022-12-26T02:42:29.686Z,398.63
2022-12-26T02:43:28.121Z,402.80
2022-12-26T02:44:28.391Z,405.60
2022-12-26T02:45:32.285Z,403.30
2022-12-26T02:46:23.388Z,405.08
2022-12-26T02:47:07.801Z,404.02
2022-12-26T02:48:03.266Z,403.27
2022-12-26T02:48:42.448Z,405.52
2022-12-26T02:49:20.431Z,405.17
2022-12-26T02:50:27.833Z,400.52
2022-12-26T02:51:36.858Z,405.10
2022-12-26T02:52:34.680Z,403.00
2022-12-26T02:53:36.749Z,403.67
2022-12-26T02:54:30.726Z,406.33
2022-12-26T02:55:25.191Z,403.45
2022-12-26T02:56:19.181Z,404.83
2022-12-26T02:57:13.015Z,402.25
2022-12-26T02:58:30.206Z,403.90
2022-12-26T02:59:53.736Z,405.27
2022-12-26T03:00:41.160Z,399.95
2022-12-26T03:01:43.204Z,404.48
2022-12-26T03:02:41.732Z,402.83
2022-12-26T03:03:35.316Z,403.58
2022-12-26T03:04:28.684Z,402.05
2022-12-26T03:05:19.992Z,405.67
2022-12-26T03:06:25.336Z,407.65
2022-12-26T03:07:18.710Z,406.95
2022-12-26T03:08:10.001Z,406.23
2022-12-26T03:09:00.658Z,406.23
2022-12-26T03:09:52.541Z,402.83
2022-12-26T03:10:47.334Z,400.25
2022-12-26T03:11:38.467Z,399.40
2022-12-26T03:12:52.028Z,401.00
2022-12-26T03:13:27.892Z,404.15
2022-12-26T03:14:07.609Z,403.27
2022-12-26T03:14:48.788Z,399.90
2022-12-26T03:15:22.397Z,397.73
2022-12-26T03:16:16.180Z,396.90
2022-12-26T03:17:09.072Z,400.50
2022-12-26T03:17:42.874Z,401.75
2022-12-26T03:18:15.344Z,401.13
2022-12-26T03:18:59.282Z,397.85
2022-12-26T03:19:33.471Z,399.05
2022-12-26T03:20:26.194Z,395.38
2022-12-26T03:20:59.242Z,400.65
2022-12-26T03:21:34.894Z,400.92
2022-12-26T03:22:27.784Z,397.05
2022-12-26T03:23:00.085Z,400.83
2022-12-26T03:23:33.219Z,401.10
2022-12-26T03:24:06.301Z,402.92
2022-12-26T03:25:01.621Z,398.88
2022-12-26T03:25:59.664Z,403.73
2022-12-26T03:26:41.281Z,406.88
2022-12-26T03:27:13.670Z,398.63
2022-12-26T03:27:46.301Z,400.65
2022-12-26T03:28:18.726Z,391.08
2022-12-26T03:28:51.048Z,399.10
2022-12-26T03:29:42.766Z,388.38
2022-12-26T03:30:33.683Z,402.30
2022-12-26T03:31:08.210Z,397.08
2022-12-26T03:31:40.579Z,394.52
2022-12-26T03:32:13.439Z,402.17
2022-12-26T03:32:45.892Z,403.35
2022-12-26T03:33:47.481Z,399.33
2022-12-26T03:34:19.837Z,401.27
2022-12-26T03:34:52.177Z,397.58
2022-12-26T03:35:25.521Z,404.17
2022-12-26T03:35:58.353Z,393.75
2022-12-26T03:36:30.647Z,393.30
2022-12-26T03:37:12.262Z,399.75
2022-12-26T03:37:52.997Z,393.80
2022-12-26T03:38:27.947Z,398.80
2022-12-26T03:39:08.137Z,401.65
2022-12-26T03:39:59.163Z,405.17
2022-12-26T03:40:56.007Z,407.85
2022-12-26T03:41:52.001Z,406.35
2022-12-26T03:43:15.603Z,404.08
2022-12-26T03:44:09.593Z,415.08
2022-12-26T03:45:07.534Z,418.88
2022-12-26T03:46:04.046Z,416.30
2022-12-26T03:47:06.958Z,421.60
2022-12-26T03:48:20.396Z,419.90
2022-12-26T03:49:26.813Z,424.23
2022-12-26T03:50:20.207Z,427.52
2022-12-26T03:51:18.608Z,429.52
2022-12-26T03:52:18.045Z,436.70
2022-12-26T03:53:14.899Z,435.63
2022-12-26T03:54:28.897Z,423.20
2022-12-26T03:55:43.084Z,414.45
2022-12-26T03:57:00.434Z,417.10
2022-12-26T03:58:11.450Z,410.08
2022-12-26T03:59:13.292Z,408.80
2022-12-26T04:00:09.845Z,413.15
2022-12-26T04:01:04.275Z,404.45
2022-12-26T04:01:58.148Z,401.52
2022-12-26T04:02:49.866Z,406.13
2022-12-26T04:03:41.331Z,408.70
2022-12-26T04:04:34.206Z,405.60
2022-12-26T04:05:25.974Z,406.17
2022-12-26T04:06:19.044Z,406.50
2022-12-26T04:07:13.349Z,403.27
2022-12-26T04:08:11.081Z,406.75
2022-12-26T04:09:06.524Z,407.23
2022-12-26T04:10:29.702Z,406.08
2022-12-26T04:11:21.104Z,409.33
2022-12-26T04:12:12.333Z,405.50
2022-12-26T04:13:04.299Z,407.65
2022-12-26T04:13:58.405Z,405.70
2022-12-26T04:15:01.459Z,402.98
2022-12-26T04:15:58.293Z,402.70
2022-12-26T04:16:54.692Z,407.55
2022-12-26T04:17:53.816Z,405.98
2022-12-26T04:18:49.918Z,406.42
2022-12-26T04:19:28.683Z,407.20
2022-12-26T04:20:01.485Z,403.13
2022-12-26T04:20:54.249Z,404.52
2022-12-26T04:21:48.243Z,405.40
2022-12-26T04:22:45.318Z,403.05
2022-12-26T04:23:55.278Z,405.10
2022-12-26T04:24:50.062Z,403.50
2022-12-26T04:25:50.644Z,406.88
2022-12-26T04:26:46.733Z,405.88
2022-12-26T04:27:40.167Z,407.15
2022-12-26T04:28:31.665Z,404.55
2022-12-26T04:29:23.005Z,405.95
2022-12-26T04:30:13.919Z,406.75
2022-12-26T04:31:08.302Z,402.50
2022-12-26T04:32:01.902Z,401.73
2022-12-26T04:33:01.811Z,400.65
2022-12-26T04:34:00.969Z,405.58
2022-12-26T04:35:05.582Z,402.10
2022-12-26T04:36:06.457Z,402.60
2022-12-26T04:37:02.819Z,405.77
2022-12-26T04:37:54.433Z,402.88
2022-12-26T04:38:47.420Z,407.23
2022-12-26T04:39:40.408Z,404.30
2022-12-26T04:40:34.726Z,405.20
2022-12-26T04:41:26.543Z,402.20
2022-12-26T04:42:18.041Z,404.27
2022-12-26T04:43:49.389Z,400.35
2022-12-26T04:44:06.013Z,404.80
2022-12-26T04:44:39.000Z,401.48
2022-12-26T04:45:12.416Z,403.55
2022-12-26T04:45:44.824Z,399.58
2022-12-26T04:46:17.814Z,402.85
2022-12-26T04:46:51.437Z,402.02
2022-12-26T04:47:23.894Z,391.92
2022-12-26T04:48:15.084Z,397.40
2022-12-26T04:49:07.018Z,398.02
2022-12-26T04:50:02.009Z,396.20
2022-12-26T04:50:34.351Z,402.90
2022-12-26T04:51:06.644Z,397.45
2022-12-26T04:51:39.167Z,395.98
2022-12-26T04:52:12.833Z,397.38
2022-12-26T04:53:00.827Z,387.98
2022-12-26T04:53:33.545Z,397.25
2022-12-26T04:54:06.038Z,398.80
2022-12-26T04:54:38.519Z,399.67
2022-12-26T04:55:11.059Z,397.70
2022-12-26T04:55:43.376Z,396.90
2022-12-26T04:56:17.328Z,389.08
2022-12-26T04:56:49.615Z,385.08
2022-12-26T04:57:21.900Z,392.30
2022-12-26T04:57:54.616Z,388.55
2022-12-26T04:58:26.957Z,383.83
2022-12-26T04:59:00.210Z,383.75
2022-12-26T04:59:32.945Z,381.90
2022-12-26T05:00:05.701Z,394.25
2022-12-26T05:00:38.173Z,394.92
2022-12-26T05:01:29.087Z,392.75
2022-12-26T05:02:28.293Z,397.45
2022-12-26T05:03:19.879Z,397.38
2022-12-26T05:04:10.702Z,399.85
2022-12-26T05:05:01.514Z,400.73
2022-12-26T05:05:54.938Z,403.38
2022-12-26T05:06:46.032Z,402.60
2022-12-26T05:07:39.823Z,400.25
2022-12-26T05:08:41.923Z,407.83
2022-12-26T05:09:33.750Z,409.73
2022-12-26T05:10:07.288Z,411.25
2022-12-26T05:10:40.001Z,399.17
2022-12-26T05:11:12.417Z,398.77
2022-12-26T05:11:47.453Z,400.50
2022-12-26T05:12:19.924Z,397.05
2022-12-26T05:12:52.894Z,390.55
2022-12-26T05:13:25.151Z,392.50
2022-12-26T05:13:57.935Z,396.73
2022-12-26T05:14:31.823Z,391.35
2022-12-26T05:15:04.272Z,384.50
2022-12-26T05:15:56.814Z,395.23
2022-12-26T05:16:47.536Z,396.80
2022-12-26T05:17:38.362Z,398.55
2022-12-26T05:18:29.434Z,400.17
2022-12-26T05:19:20.090Z,402.75
2022-12-26T05:20:10.736Z,402.20
2022-12-26T05:21:01.504Z,398.15
2022-12-26T05:21:52.496Z,403.30
2022-12-26T05:22:44.263Z,403.30
2022-12-26T05:23:45.615Z,401.02
2022-12-26T05:24:36.921Z,403.17
2022-12-26T05:25:33.127Z,399.90
2022-12-26T05:26:23.996Z,404.40
2022-12-26T05:27:14.953Z,403.80
2022-12-26T05:28:06.344Z,407.58
2022-12-26T05:28:44.709Z,407.52
2022-12-26T05:29:17.079Z,413.95
2022-12-26T05:29:49.467Z,411.92
2022-12-26T05:30:21.846Z,411.98
2022-12-26T05:30:54.163Z,401.60
2022-12-26T05:31:33.002Z,400.83
2022-12-26T05:32:07.632Z,397.30
2022-12-26T05:32:58.618Z,399.80
2022-12-26T05:33:49.641Z,398.70
2022-12-26T05:34:22.237Z,396.35
2022-12-26T05:34:54.504Z,395.65
2022-12-26T05:35:27.025Z,398.63
2022-12-26T05:35:59.341Z,397.63
2022-12-26T05:36:42.321Z,388.67
2022-12-26T05:37:14.683Z,391.10
2022-12-26T05:37:47.106Z,399.60
2022-12-26T05:38:19.514Z,398.27
2022-12-26T05:38:52.368Z,396.17
2022-12-26T05:39:25.364Z,396.38
2022-12-26T05:39:57.654Z,395.75
2022-12-26T05:40:30.027Z,391.25
2022-12-26T05:41:02.580Z,396.02
2022-12-26T05:41:35.237Z,391.13
2022-12-26T05:42:07.626Z,387.65
2022-12-26T05:42:39.944Z,393.17
2022-12-26T05:43:12.252Z,388.90
2022-12-26T05:43:44.543Z,386.13
2022-12-26T05:44:16.916Z,390.15
2022-12-26T05:44:50.188Z,387.95
2022-12-26T05:45:22.539Z,388.00
2022-12-26T05:45:54.827Z,392.17
2022-12-26T05:46:27.396Z,398.77
2022-12-26T05:46:59.857Z,394.25
2022-12-26T05:47:32.218Z,397.67
2022-12-26T05:48:04.660Z,398.55
2022-12-26T05:48:37.067Z,392.30
2022-12-26T05:49:09.515Z,390.83
2022-12-26T05:49:42.060Z,395.38
2022-12-26T05:50:14.364Z,392.67
2022-12-26T05:50:46.708Z,395.75
2022-12-26T05:51:19.025Z,397.38
2022-12-26T05:51:51.315Z,394.02
2022-12-26T05:52:23.684Z,394.77
2022-12-26T05:52:59.229Z,400.25
2022-12-26T05:53:31.611Z,399.45
2022-12-26T05:54:04.044Z,397.33
2022-12-26T05:54:36.349Z,395.48
2022-12-26T05:55:08.897Z,397.77
2022-12-26T05:55:43.211Z,396.67
2022-12-26T05:56:16.417Z,399.58
2022-12-26T05:56:49.562Z,403.33
2022-12-26T05:57:22.089Z,401.98
2022-12-26T05:57:54.570Z,398.73
2022-12-26T05:58:27.080Z,397.77
2022-12-26T05:59:00.160Z,387.02
2022-12-26T05:59:32.952Z,399.55
2022-12-26T06:00:05.520Z,406.98
2022-12-26T06:00:37.795Z,405.20
2022-12-26T06:01:19.127Z,406.52
2022-12-26T06:01:51.574Z,408.75
2022-12-26T06:02:23.990Z,404.70
2022-12-26T06:02:56.478Z,406.08
2022-12-26T06:03:30.135Z,407.15
2022-12-26T06:04:03.215Z,407.48
2022-12-26T06:04:36.753Z,405.60
2022-12-26T06:05:09.242Z,405.50
2022-12-26T06:05:41.534Z,401.80
2022-12-26T06:06:14.309Z,407.95
2022-12-26T06:06:46.581Z,386.33
2022-12-26T06:07:18.907Z,402.83
2022-12-26T06:07:51.395Z,406.73
2022-12-26T06:08:23.680Z,391.63
2022-12-26T06:08:56.470Z,400.13
2022-12-26T06:09:28.866Z,401.52
2022-12-26T06:10:01.248Z,400.98
2022-12-26T06:10:33.542Z,409.42
2022-12-26T06:11:07.142Z,395.10
2022-12-26T06:11:48.508Z,412.65
2022-12-26T06:12:21.313Z,408.25
2022-12-26T06:12:53.623Z,412.15
2022-12-26T06:13:26.129Z,409.15
2022-12-26T06:13:58.993Z,404.00
2022-12-26T06:14:32.076Z,400.45
2022-12-26T06:15:04.515Z,409.55
2022-12-26T06:15:38.396Z,403.33
2022-12-26T06:16:14.966Z,402.30
2022-12-26T06:16:47.429Z,408.15
2022-12-26T06:17:19.847Z,403.95
2022-12-26T06:17:54.181Z,411.52
2022-12-26T06:18:26.547Z,407.08
2022-12-26T06:18:59.287Z,406.92
2022-12-26T06:19:31.590Z,404.02
2022-12-26T06:20:04.125Z,396.42
2022-12-26T06:20:38.680Z,401.25
2022-12-26T06:21:12.233Z,405.85
2022-12-26T06:21:44.619Z,391.33
2022-12-26T06:22:17.013Z,399.73
2022-12-26T06:22:49.299Z,404.23
2022-12-26T06:23:21.728Z,409.02
2022-12-26T06:23:54.087Z,404.38
2022-12-26T06:24:26.404Z,403.17
2022-12-26T06:24:58.791Z,406.20
2022-12-26T06:25:31.109Z,403.85
2022-12-26T06:26:03.904Z,400.85
2022-12-26T06:26:36.407Z,395.40
2022-12-26T06:27:08.732Z,393.00
2022-12-26T06:27:42.744Z,392.00
2022-12-26T06:28:15.314Z,393.10
2022-12-26T06:28:47.853Z,397.38
2022-12-26T06:29:20.263Z,404.75
2022-12-26T06:29:52.581Z,406.75
2022-12-26T06:30:25.016Z,405.38
2022-12-26T06:31:07.517Z,401.67
2022-12-26T06:31:40.361Z,406.90
2022-12-26T06:32:12.764Z,404.60
2022-12-26T06:32:45.161Z,406.85
2022-12-26T06:33:17.640Z,394.02
2022-12-26T06:33:51.680Z,402.40
2022-12-26T06:34:24.104Z,405.63
2022-12-26T06:34:56.519Z,398.73
2022-12-26T06:35:28.863Z,403.50
2022-12-26T06:36:08.034Z,405.70
2022-12-26T06:36:40.357Z,408.73
2022-12-26T06:37:12.676Z,406.92
2022-12-26T06:37:45.041Z,407.75
2022-12-26T06:38:17.346Z,409.38
2022-12-26T06:38:49.996Z,406.15
2022-12-26T06:39:22.997Z,408.33
2022-12-26T06:39:55.330Z,401.98
2022-12-26T06:40:29.230Z,401.20
2022-12-26T06:41:01.777Z,406.08
2022-12-26T06:41:34.124Z,404.15
2022-12-26T06:42:06.485Z,396.63
2022-12-26T06:42:38.774Z,392.40
2022-12-26T06:43:11.425Z,408.23
2022-12-26T06:43:44.376Z,405.90
2022-12-26T06:44:18.628Z,402.50
2022-12-26T06:44:51.170Z,405.10
2022-12-26T06:45:23.461Z,405.35
2022-12-26T06:45:56.435Z,402.92
2022-12-26T06:46:28.826Z,405.63
2022-12-26T06:47:01.227Z,408.83
2022-12-26T06:47:33.614Z,396.63
2022-12-26T06:48:06.050Z,401.15
2022-12-26T06:48:40.967Z,404.95
2022-12-26T06:49:13.627Z,407.85
2022-12-26T06:49:45.906Z,402.02
2022-12-26T06:50:18.397Z,399.00
2022-12-26T06:50:51.340Z,401.65
2022-12-26T06:51:24.633Z,395.02
2022-12-26T06:51:56.925Z,391.25
2022-12-26T06:52:29.313Z,402.83
2022-12-26T06:53:01.843Z,406.17
2022-12-26T06:53:34.739Z,406.92
2022-12-26T06:54:07.134Z,403.65
2022-12-26T06:54:39.920Z,401.00
2022-12-26T06:55:12.371Z,407.27
2022-12-26T06:55:44.643Z,408.35
2022-12-26T06:56:18.200Z,404.42
2022-12-26T06:56:50.636Z,406.27
2022-12-26T06:57:22.887Z,405.10
2022-12-26T06:57:55.188Z,412.10
2022-12-26T06:58:27.663Z,409.80
2022-12-26T06:59:01.156Z,400.75
2022-12-26T06:59:33.474Z,403.48
2022-12-26T07:00:06.088Z,409.63
2022-12-26T07:00:38.523Z,406.88
2022-12-26T07:01:12.264Z,404.60
2022-12-26T07:01:44.790Z,403.50
2022-12-26T07:02:17.439Z,404.38
2022-12-26T07:02:51.716Z,402.40
2022-12-26T07:03:26.185Z,407.75
2022-12-26T07:03:59.044Z,404.38
2022-12-26T07:04:31.388Z,402.95
2022-12-26T07:05:03.852Z,409.45
2022-12-26T07:05:36.699Z,406.13
2022-12-26T07:06:13.399Z,406.90
2022-12-26T07:06:45.705Z,403.02
2022-12-26T07:07:18.016Z,407.80
2022-12-26T07:07:51.386Z,408.98
2022-12-26T07:08:23.858Z,398.75
2022-12-26T07:09:00.707Z,404.02
2022-12-26T07:09:34.129Z,411.42
2022-12-26T07:10:06.768Z,411.00
2022-12-26T07:10:39.054Z,407.70
2022-12-26T07:11:17.967Z,404.13
2022-12-26T07:11:50.925Z,393.25
2022-12-26T07:12:23.345Z,407.48
2022-12-26T07:12:55.628Z,400.80
2022-12-26T07:13:28.046Z,397.73
2022-12-26T07:14:00.740Z,400.13
2022-12-26T07:14:33.126Z,405.77
2022-12-26T07:15:05.758Z,404.50
2022-12-26T07:15:38.036Z,407.60
2022-12-26T07:16:11.060Z,408.30
2022-12-26T07:16:44.465Z,405.05
2022-12-26T07:17:16.864Z,396.83
2022-12-26T07:17:49.165Z,400.48
2022-12-26T07:18:21.506Z,408.08
2022-12-26T07:18:54.413Z,400.58
2022-12-26T07:19:26.712Z,391.15
2022-12-26T07:19:59.064Z,408.67
2022-12-26T07:20:31.347Z,405.75
2022-12-26T07:21:07.921Z,407.00
2022-12-26T07:21:41.236Z,408.85
2022-12-26T07:22:13.725Z,393.77
2022-12-26T07:22:46.011Z,402.48
2022-12-26T07:23:18.310Z,405.75
2022-12-26T07:23:51.020Z,406.55
2022-12-26T07:24:23.518Z,397.17
2022-12-26T07:24:55.812Z,403.67
2022-12-26T07:25:30.224Z,406.85
2022-12-26T07:26:02.965Z,404.70
2022-12-26T07:26:35.330Z,400.27
2022-12-26T07:27:07.599Z,403.60
2022-12-26T07:27:39.879Z,395.23
2022-12-26T07:28:12.362Z,404.48
2022-12-26T07:28:44.880Z,406.17
2022-12-26T07:29:18.034Z,403.23
2022-12-26T07:29:50.345Z,408.30
2022-12-26T07:30:22.701Z,402.85
2022-12-26T07:30:55.197Z,401.45
2022-12-26T07:31:30.495Z,403.67
2022-12-26T07:32:02.972Z,394.85
2022-12-26T07:32:35.396Z,398.67
2022-12-26T07:33:07.679Z,407.83
2022-12-26T07:33:39.992Z,409.23
2022-12-26T07:34:12.287Z,408.85
2022-12-26T07:34:44.669Z,411.02
2022-12-26T07:35:16.991Z,412.92
2022-12-26T07:35:49.629Z,408.17
2022-12-26T07:36:23.932Z,414.20
2022-12-26T07:36:56.214Z,415.67
2022-12-26T07:37:28.595Z,414.55
2022-12-26T07:38:00.934Z,408.48
2022-12-26T07:38:33.500Z,411.20
2022-12-26T07:39:05.799Z,407.85
2022-12-26T07:39:38.127Z,415.70
2022-12-26T07:40:10.962Z,410.75
2022-12-26T07:40:43.240Z,408.90
2022-12-26T07:41:34.098Z,406.90
2022-12-26T07:42:06.449Z,408.25
2022-12-26T07:42:38.725Z,414.88
2022-12-26T07:43:11.093Z,416.23
2022-12-26T07:43:43.450Z,399.63
2022-12-26T07:44:15.781Z,414.35
2022-12-26T07:44:48.143Z,405.58
2022-12-26T07:45:22.024Z,404.10
2022-12-26T07:45:58.926Z,400.92
2022-12-26T07:46:31.351Z,413.27
2022-12-26T07:47:03.671Z,411.50
2022-12-26T07:47:36.006Z,397.23
2022-12-26T07:48:08.271Z,408.15
2022-12-26T07:48:40.642Z,408.02
2022-12-26T07:49:13.019Z,409.17
2022-12-26T07:49:45.445Z,408.63
2022-12-26T07:50:17.727Z,413.88
2022-12-26T07:50:50.534Z,414.65
2022-12-26T07:51:22.950Z,415.55
2022-12-26T07:51:55.340Z,413.95
2022-12-26T07:52:27.602Z,413.05
2022-12-26T07:53:00.666Z,412.75
2022-12-26T07:53:32.998Z,409.55
2022-12-26T07:54:10.768Z,413.98
2022-12-26T07:54:43.952Z,415.05
2022-12-26T07:55:16.268Z,414.40
2022-12-26T07:55:48.584Z,411.65
2022-12-26T07:56:21.839Z,415.77
2022-12-26T07:57:09.045Z,412.15